createdAt,value
2019-05-19T00:01:58.922Z,17.40
2019-05-19T00:04:27.296Z,17.40
2019-05-19T00:06:55.716Z,17.40
2019-05-19T00:09:24.097Z,17.40
2019-05-19T00:11:52.491Z,17.30
2019-05-19T00:14:20.869Z,17.40
2019-05-19T00:16:49.274Z,17.30
2019-05-19T00:19:26.375Z,17.30
2019-05-19T00:21:47.748Z,17.30
2019-05-19T00:24:16.175Z,17.40
2019-05-19T00:26:44.527Z,17.30
2019-05-19T00:29:12.908Z,17.30
2019-05-19T00:31:41.337Z,17.30
2019-05-19T00:34:09.718Z,17.30
2019-05-19T00:36:38.088Z,17.30
2019-05-19T00:39:06.629Z,17.30
2019-05-19T00:41:35.022Z,17.30
2019-05-19T00:44:03.416Z,17.30
2019-05-19T00:46:31.793Z,17.30
2019-05-19T00:49:00.204Z,17.20
2019-05-19T00:51:28.581Z,17.10
2019-05-19T00:53:56.963Z,17.10
2019-05-19T00:56:25.347Z,17.10
2019-05-19T00:58:54.043Z,17.10
2019-05-19T01:01:22.410Z,17.10
2019-05-19T01:03:50.803Z,17.10
2019-05-19T01:06:19.243Z,17.00
2019-05-19T01:08:47.698Z,17.00
2019-05-19T01:11:16.077Z,17.00
2019-05-19T01:13:44.544Z,17.00
2019-05-19T01:16:12.935Z,16.90
2019-05-19T01:18:41.320Z,16.90
2019-05-19T01:21:09.722Z,16.90
2019-05-19T01:23:38.113Z,16.80
2019-05-19T01:26:06.508Z,16.90
2019-05-19T01:28:34.888Z,16.90
2019-05-19T01:31:03.323Z,16.80
2019-05-19T01:33:31.893Z,16.70
2019-05-19T01:36:00.863Z,16.70
2019-05-19T01:38:29.256Z,16.70
2019-05-19T01:40:57.639Z,16.80
2019-05-19T01:43:26.030Z,16.80
2019-05-19T01:45:54.451Z,16.70
2019-05-19T01:48:22.832Z,16.70
2019-05-19T01:50:51.223Z,16.70
2019-05-19T01:53:19.627Z,16.70
2019-05-19T01:55:48.030Z,16.60
2019-05-19T01:58:16.410Z,16.60
2019-05-19T02:00:44.810Z,16.70
2019-05-19T02:03:13.220Z,16.60
2019-05-19T02:05:41.619Z,16.60
2019-05-19T02:08:10.001Z,16.60
2019-05-19T02:10:38.390Z,16.60
2019-05-19T02:13:06.780Z,16.60
2019-05-19T02:15:35.201Z,16.70
2019-05-19T02:18:03.602Z,16.70
2019-05-19T02:20:33.585Z,16.70
2019-05-19T02:23:02.037Z,16.70
2019-05-19T02:25:30.400Z,16.60
2019-05-19T02:27:58.802Z,16.60
2019-05-19T02:30:27.193Z,16.60
2019-05-19T02:32:55.589Z,16.60
2019-05-19T02:35:23.969Z,16.60
2019-05-19T02:37:52.385Z,16.60
2019-05-19T02:40:20.771Z,16.60
2019-05-19T02:42:49.630Z,16.60
2019-05-19T02:45:18.057Z,16.60
2019-05-19T02:47:46.429Z,16.60
2019-05-19T02:50:14.811Z,16.70
2019-05-19T02:52:44.412Z,16.70
2019-05-19T02:55:12.795Z,16.70
2019-05-19T02:57:41.346Z,16.70
2019-05-19T03:00:10.076Z,16.80
2019-05-19T03:02:38.449Z,16.80
2019-05-19T03:05:06.883Z,16.80
2019-05-19T03:07:35.262Z,16.80
2019-05-19T03:10:04.571Z,16.80
2019-05-19T03:12:32.956Z,16.80
2019-05-19T03:15:01.386Z,16.80
2019-05-19T03:17:29.784Z,16.90
2019-05-19T03:19:58.155Z,16.90
2019-05-19T03:22:26.578Z,16.90
2019-05-19T03:24:54.944Z,16.90
2019-05-19T03:27:23.324Z,16.90
2019-05-19T03:29:56.193Z,16.90
2019-05-19T03:32:26.224Z,17.00
2019-05-19T03:34:54.606Z,17.00
2019-05-19T03:37:23.000Z,17.00
2019-05-19T03:39:51.414Z,17.00
2019-05-19T03:42:19.789Z,16.90
2019-05-19T03:44:48.186Z,16.90
2019-05-19T03:47:16.611Z,16.90
2019-05-19T03:49:44.993Z,16.90
2019-05-19T03:52:13.359Z,16.90
2019-05-19T03:54:41.771Z,16.90
2019-05-19T03:57:10.211Z,16.90
2019-05-19T03:59:38.586Z,16.90
2019-05-19T04:02:06.985Z,16.90
2019-05-19T04:04:35.366Z,16.80
2019-05-19T04:07:03.750Z,16.80
2019-05-19T04:09:32.161Z,16.90
2019-05-19T04:12:00.542Z,16.90
2019-05-19T04:14:28.940Z,17.00
2019-05-19T04:16:57.329Z,16.90
2019-05-19T04:19:25.725Z,16.90
2019-05-19T04:21:54.126Z,16.90
2019-05-19T04:24:22.535Z,16.80
2019-05-19T04:26:50.907Z,16.80
2019-05-19T04:29:19.296Z,16.80
2019-05-19T04:31:47.738Z,16.80
2019-05-19T04:34:16.128Z,16.80
2019-05-19T04:36:44.509Z,16.80
2019-05-19T04:39:12.926Z,16.80
2019-05-19T04:41:41.309Z,16.80
2019-05-19T04:44:09.709Z,16.80
2019-05-19T04:46:38.170Z,16.80
2019-05-19T04:49:06.537Z,16.80
2019-05-19T04:51:34.917Z,16.80
2019-05-19T04:54:03.338Z,16.80
2019-05-19T04:56:31.726Z,16.80
2019-05-19T04:59:00.109Z,16.80
2019-05-19T05:01:28.502Z,16.80
2019-05-19T05:03:56.911Z,16.70
2019-05-19T05:06:25.303Z,16.70
2019-05-19T05:08:53.725Z,16.80
2019-05-19T05:11:22.105Z,16.80
2019-05-19T05:13:50.507Z,16.80
2019-05-19T05:16:18.910Z,16.80
2019-05-19T05:18:47.916Z,16.90
2019-05-19T05:21:16.373Z,17.00
2019-05-19T05:23:44.768Z,17.00
2019-05-19T05:26:13.170Z,17.10
2019-05-19T05:28:41.557Z,17.00
2019-05-19T05:31:09.966Z,17.10
2019-05-19T05:33:38.357Z,17.10
2019-05-19T05:36:06.735Z,17.10
2019-05-19T05:38:35.187Z,17.10
2019-05-19T05:41:03.577Z,17.10
2019-05-19T05:43:31.975Z,17.10
2019-05-19T05:46:00.408Z,17.20
2019-05-19T05:48:28.780Z,17.20
2019-05-19T05:50:57.171Z,17.20
2019-05-19T05:53:25.568Z,17.30
2019-05-19T05:55:53.997Z,17.40
2019-05-19T05:58:22.433Z,17.50
2019-05-19T06:00:50.817Z,17.60
2019-05-19T06:03:19.204Z,17.60
2019-05-19T06:05:47.608Z,17.60
2019-05-19T06:08:16.175Z,17.60
2019-05-19T06:10:44.598Z,17.70
2019-05-19T06:13:13.009Z,17.70
2019-05-19T06:15:41.455Z,17.70
2019-05-19T06:18:09.834Z,17.70
2019-05-19T06:20:38.239Z,17.70
2019-05-19T06:23:06.671Z,17.80
2019-05-19T06:25:35.116Z,17.80
2019-05-19T06:28:03.481Z,17.80
2019-05-19T06:30:31.866Z,17.80
2019-05-19T06:33:01.645Z,17.90
2019-05-19T06:35:30.029Z,17.90
2019-05-19T06:37:58.409Z,18.00
2019-05-19T06:40:26.796Z,18.10
2019-05-19T06:42:55.167Z,18.10
2019-05-19T06:45:23.637Z,18.10
2019-05-19T06:47:52.084Z,18.10
2019-05-19T06:50:20.484Z,18.10
2019-05-19T06:52:48.885Z,18.10
2019-05-19T06:55:17.273Z,18.10
2019-05-19T06:57:45.679Z,18.10
2019-05-19T07:00:14.133Z,18.00
2019-05-19T07:02:42.530Z,18.00
2019-05-19T07:05:10.909Z,18.00
2019-05-19T07:07:39.286Z,18.00
2019-05-19T07:10:08.001Z,18.10
2019-05-19T07:12:36.390Z,18.10
2019-05-19T07:15:05.918Z,18.10
2019-05-19T07:17:34.304Z,18.10
2019-05-19T07:20:02.707Z,18.00
2019-05-19T07:22:31.102Z,17.90
2019-05-19T07:24:59.497Z,17.90
2019-05-19T07:27:27.879Z,17.90
2019-05-19T07:29:56.321Z,17.90
2019-05-19T07:32:24.680Z,18.00
2019-05-19T07:34:53.057Z,18.10
2019-05-19T07:37:21.468Z,18.10
2019-05-19T07:39:49.839Z,18.00
2019-05-19T07:42:18.238Z,18.10
2019-05-19T07:44:46.671Z,18.10
2019-05-19T07:47:15.052Z,18.10
2019-05-19T07:49:43.475Z,18.30
2019-05-19T07:52:11.889Z,18.30
2019-05-19T07:54:40.256Z,18.30
2019-05-19T07:57:08.637Z,18.40
2019-05-19T07:59:37.041Z,18.40
2019-05-19T08:02:05.420Z,18.50
2019-05-19T08:04:33.827Z,18.60
2019-05-19T08:07:02.216Z,18.60
2019-05-19T08:09:30.601Z,18.70
2019-05-19T08:11:58.994Z,18.80
2019-05-19T08:14:27.368Z,18.90
2019-05-19T08:16:55.745Z,18.90
2019-05-19T08:19:24.162Z,19.00
2019-05-19T08:21:52.951Z,19.10
2019-05-19T08:24:21.330Z,19.10
2019-05-19T08:26:49.761Z,19.30
2019-05-19T08:29:18.254Z,19.30
2019-05-19T08:31:46.673Z,19.40
2019-05-19T08:34:15.146Z,19.40
2019-05-19T08:36:43.538Z,19.50
2019-05-19T08:39:11.930Z,19.50
2019-05-19T08:41:40.361Z,19.60
2019-05-19T08:44:08.741Z,19.50
2019-05-19T08:46:37.129Z,19.40
2019-05-19T08:49:05.561Z,19.50
2019-05-19T08:51:34.115Z,19.40
2019-05-19T08:54:13.862Z,19.40
2019-05-19T08:56:32.571Z,19.50
2019-05-19T08:59:00.996Z,19.50
2019-05-19T09:01:29.407Z,19.40
2019-05-19T09:03:58.178Z,19.50
2019-05-19T09:06:26.993Z,19.50
2019-05-19T09:08:55.403Z,19.50
2019-05-19T09:11:23.848Z,19.50
2019-05-19T09:13:52.229Z,19.60
2019-05-19T09:16:20.601Z,19.70
2019-05-19T09:18:49.114Z,19.80
2019-05-19T09:21:17.557Z,19.90
2019-05-19T09:23:45.947Z,20.00
2019-05-19T09:26:14.355Z,20.10
2019-05-19T09:28:42.756Z,20.20
2019-05-19T09:31:11.142Z,20.20
2019-05-19T09:33:39.546Z,20.40
2019-05-19T09:36:07.944Z,20.50
2019-05-19T09:38:36.375Z,20.50
2019-05-19T09:41:05.163Z,20.50
2019-05-19T09:43:33.549Z,20.40
2019-05-19T09:46:01.944Z,20.20
2019-05-19T09:48:30.367Z,20.10
2019-05-19T09:50:58.755Z,20.10
2019-05-19T09:53:28.833Z,20.00
2019-05-19T09:55:57.241Z,20.00
2019-05-19T09:58:25.707Z,20.10
2019-05-19T10:00:54.168Z,20.20
2019-05-19T10:03:22.541Z,20.10
2019-05-19T10:05:50.959Z,20.20
2019-05-19T10:08:22.142Z,20.20
2019-05-19T10:11:03.315Z,20.20
2019-05-19T10:13:31.706Z,20.20
2019-05-19T10:16:00.083Z,20.10
2019-05-19T10:18:28.536Z,20.00
2019-05-19T10:20:56.931Z,19.80
2019-05-19T10:23:25.291Z,19.70
2019-05-19T10:25:53.711Z,19.70
2019-05-19T10:28:22.096Z,19.70
2019-05-19T10:30:50.517Z,19.70
2019-05-19T10:33:18.905Z,19.70
2019-05-19T10:35:47.283Z,19.80
2019-05-19T10:38:17.810Z,19.90
2019-05-19T10:40:46.378Z,20.10
2019-05-19T10:43:14.799Z,20.20
2019-05-19T10:45:44.821Z,20.40
2019-05-19T10:48:13.195Z,20.60
2019-05-19T10:50:41.629Z,20.70
2019-05-19T10:53:10.017Z,20.80
2019-05-19T10:55:38.391Z,20.80
2019-05-19T10:58:06.823Z,20.90
2019-05-19T11:00:38.186Z,20.90
2019-05-19T11:03:06.564Z,21.00
2019-05-19T11:05:35.019Z,20.90
2019-05-19T11:08:03.400Z,20.90
2019-05-19T11:10:31.859Z,20.80
2019-05-19T11:13:00.416Z,20.80
2019-05-19T11:15:28.807Z,20.90
2019-05-19T11:17:57.221Z,20.90
2019-05-19T11:20:25.638Z,21.00
2019-05-19T11:22:54.027Z,21.20
2019-05-19T11:25:33.336Z,21.50
2019-05-19T11:27:52.495Z,21.60
2019-05-19T11:30:20.966Z,21.80
2019-05-19T11:32:49.370Z,22.10
2019-05-19T11:35:19.484Z,22.30
2019-05-19T11:37:47.929Z,22.50
2019-05-19T11:40:16.310Z,22.60
2019-05-19T11:42:46.834Z,22.70
2019-05-19T11:45:14.902Z,22.70
2019-05-19T11:47:43.325Z,22.70
2019-05-19T11:50:11.719Z,22.70
2019-05-19T11:52:40.147Z,22.50
2019-05-19T11:55:08.606Z,22.50
2019-05-19T11:57:37.012Z,22.40
2019-05-19T12:00:06.619Z,22.30
2019-05-19T12:02:35.065Z,22.40
2019-05-19T12:05:04.247Z,22.40
2019-05-19T12:07:32.707Z,22.50
2019-05-19T12:10:01.190Z,22.60
2019-05-19T12:12:29.572Z,22.50
2019-05-19T12:14:57.960Z,22.40
2019-05-19T12:17:26.385Z,22.10
2019-05-19T12:19:54.755Z,22.00
2019-05-19T12:22:23.164Z,21.80
2019-05-19T12:24:51.601Z,21.60
2019-05-19T12:27:19.986Z,21.60
2019-05-19T12:29:48.407Z,21.50
2019-05-19T12:32:16.834Z,21.40
2019-05-19T12:34:45.285Z,21.30
2019-05-19T12:37:13.682Z,21.30
2019-05-19T12:39:42.092Z,21.40
2019-05-19T12:42:10.507Z,21.40
2019-05-19T12:44:38.940Z,21.50
2019-05-19T12:47:07.344Z,21.70
2019-05-19T12:49:35.767Z,21.80
2019-05-19T12:52:04.183Z,22.00
2019-05-19T12:54:32.636Z,22.00
2019-05-19T12:57:01.013Z,22.10
2019-05-19T12:59:29.442Z,22.30
2019-05-19T13:01:57.904Z,22.40
2019-05-19T13:04:26.277Z,22.50
2019-05-19T13:06:54.705Z,22.60
2019-05-19T13:09:23.087Z,22.80
2019-05-19T13:11:51.526Z,23.00
2019-05-19T13:14:20.057Z,23.30
2019-05-19T13:16:48.446Z,23.50
2019-05-19T13:19:16.869Z,23.50
2019-05-19T13:21:45.242Z,23.80
2019-05-19T13:24:13.645Z,23.90
2019-05-19T13:26:55.546Z,24.00
2019-05-19T13:29:12.103Z,24.30
2019-05-19T13:31:40.489Z,24.20
2019-05-19T13:34:08.885Z,24.10
2019-05-19T13:36:40.180Z,24.20
2019-05-19T13:39:07.533Z,24.20
2019-05-19T13:41:35.911Z,24.10
2019-05-19T13:44:04.392Z,23.70
2019-05-19T13:46:32.852Z,23.40
2019-05-19T13:49:01.239Z,23.20
2019-05-19T13:51:29.622Z,23.30
2019-05-19T13:53:58.037Z,24.40
2019-05-19T13:56:26.415Z,25.70
2019-05-19T13:58:54.795Z,26.40
2019-05-19T14:01:28.742Z,26.10
2019-05-19T14:03:53.271Z,25.70
2019-05-19T14:06:21.649Z,25.20
2019-05-19T14:08:50.075Z,25.70
2019-05-19T14:11:18.515Z,27.00
2019-05-19T14:13:46.908Z,28.20
2019-05-19T14:16:15.348Z,29.90
2019-05-19T14:18:43.731Z,30.00
2019-05-19T14:21:12.128Z,29.80
2019-05-19T14:23:40.596Z,29.60
2019-05-19T14:26:09.175Z,29.60
2019-05-19T14:28:37.563Z,30.80
2019-05-19T14:31:06.006Z,32.00
2019-05-19T14:33:34.402Z,33.10
2019-05-19T14:36:02.827Z,33.80
2019-05-19T14:38:31.188Z,35.10
2019-05-19T14:41:01.222Z,35.70
2019-05-19T14:43:31.031Z,35.80
2019-05-19T14:45:59.465Z,36.60
2019-05-19T14:48:27.874Z,36.50
2019-05-19T14:50:56.259Z,36.00
2019-05-19T14:53:24.810Z,36.00
2019-05-19T14:55:54.764Z,35.10
2019-05-19T14:58:24.995Z,33.00
2019-05-19T15:00:56.069Z,30.80
2019-05-19T15:03:24.510Z,29.60
2019-05-19T15:05:52.952Z,28.30
2019-05-19T15:08:21.345Z,27.20
2019-05-19T15:10:49.731Z,26.70
2019-05-19T15:13:22.547Z,26.10
2019-05-19T15:15:57.935Z,25.70
2019-05-19T15:18:24.640Z,25.20
2019-05-19T15:20:53.027Z,25.00
2019-05-19T15:23:21.433Z,24.70
2019-05-19T15:25:49.854Z,24.60
2019-05-19T15:28:18.305Z,24.40
2019-05-19T15:30:46.683Z,24.30
2019-05-19T15:33:17.831Z,24.20
2019-05-19T15:35:46.247Z,24.10
2019-05-19T15:38:14.627Z,23.90
2019-05-19T15:40:43.046Z,23.90
2019-05-19T15:43:11.427Z,23.80
2019-05-19T15:45:39.842Z,23.70
2019-05-19T15:48:08.280Z,23.50
2019-05-19T15:50:36.659Z,23.50
2019-05-19T15:53:05.049Z,23.40
2019-05-19T15:55:33.480Z,23.40
2019-05-19T15:58:15.616Z,23.30
2019-05-19T16:00:31.891Z,23.40
2019-05-19T16:03:00.279Z,23.30
2019-05-19T16:05:28.676Z,23.20
2019-05-19T16:07:57.139Z,23.00
2019-05-19T16:10:25.635Z,23.00
2019-05-19T16:12:54.034Z,23.00
2019-05-19T16:15:22.538Z,23.10
2019-05-19T16:17:50.947Z,23.00
2019-05-19T16:20:19.435Z,23.00
2019-05-19T16:22:47.779Z,22.90
2019-05-19T16:25:16.444Z,22.90
2019-05-19T16:27:44.989Z,22.80
2019-05-19T16:30:13.468Z,22.80
2019-05-19T16:32:41.849Z,22.80
2019-05-19T16:35:10.629Z,22.80
2019-05-19T16:37:39.103Z,22.80
2019-05-19T16:40:07.520Z,22.70
2019-05-19T16:42:35.923Z,22.70
2019-05-19T16:45:07.467Z,22.70
2019-05-19T16:47:36.058Z,22.60
2019-05-19T16:50:05.905Z,22.60
2019-05-19T16:52:34.879Z,22.60
2019-05-19T16:55:20.741Z,22.50
2019-05-19T16:57:49.120Z,22.50
2019-05-19T17:00:17.665Z,22.40
2019-05-19T17:02:46.106Z,22.30
2019-05-19T17:05:17.369Z,22.30
2019-05-19T17:07:45.830Z,22.30
2019-05-19T17:10:14.467Z,22.30
2019-05-19T17:12:43.207Z,22.20
2019-05-19T17:15:11.614Z,22.20
2019-05-19T17:17:40.149Z,22.20
2019-05-19T17:20:08.527Z,22.20
2019-05-19T17:22:36.915Z,22.20
2019-05-19T17:25:06.576Z,22.20
2019-05-19T17:27:34.965Z,22.10
2019-05-19T17:30:05.379Z,22.10
2019-05-19T17:32:33.763Z,22.00
2019-05-19T17:35:02.195Z,22.00
2019-05-19T17:37:30.589Z,22.00
2019-05-19T17:39:58.963Z,21.90
2019-05-19T17:42:27.422Z,21.90
2019-05-19T17:44:55.805Z,21.90
2019-05-19T17:47:24.227Z,21.90
2019-05-19T17:49:52.807Z,21.80
2019-05-19T17:52:21.339Z,21.80
2019-05-19T17:54:49.731Z,21.80
2019-05-19T17:57:18.190Z,21.70
2019-05-19T17:59:48.122Z,21.70
2019-05-19T18:02:16.540Z,21.70
2019-05-19T18:04:44.951Z,21.70
2019-05-19T18:07:13.379Z,21.60
2019-05-19T18:09:41.783Z,21.60
2019-05-19T18:12:10.199Z,21.50
2019-05-19T18:14:38.608Z,21.50
2019-05-19T18:17:07.119Z,21.50
2019-05-19T18:19:35.547Z,21.50
2019-05-19T18:22:03.969Z,21.50
2019-05-19T18:24:32.351Z,21.40
2019-05-19T18:27:01.220Z,21.30
2019-05-19T18:29:31.666Z,21.30
2019-05-19T18:31:59.592Z,21.20
2019-05-19T18:34:28.081Z,21.20
2019-05-19T18:36:56.473Z,21.20
2019-05-19T18:39:24.894Z,21.10
2019-05-19T18:41:53.300Z,21.00
2019-05-19T18:44:21.701Z,21.00
2019-05-19T18:46:50.139Z,20.90
2019-05-19T18:49:18.571Z,20.90
2019-05-19T18:51:46.986Z,20.90
2019-05-19T18:54:15.388Z,20.80
2019-05-19T18:56:43.804Z,20.70
2019-05-19T18:59:12.175Z,20.70
2019-05-19T19:01:40.586Z,20.70
2019-05-19T19:04:09.036Z,20.60
2019-05-19T19:06:37.430Z,20.50
2019-05-19T19:09:06.283Z,20.50
2019-05-19T19:11:34.783Z,20.40
2019-05-19T19:14:04.091Z,20.40
2019-05-19T19:16:32.633Z,20.40
2019-05-19T19:19:01.046Z,20.30
2019-05-19T19:21:29.441Z,20.30
2019-05-19T19:23:57.947Z,20.30
2019-05-19T19:26:26.400Z,20.30
2019-05-19T19:28:54.858Z,20.30
2019-05-19T19:31:23.320Z,20.20
2019-05-19T19:33:51.734Z,20.20
2019-05-19T19:36:20.136Z,20.20
2019-05-19T19:38:48.536Z,20.20
2019-05-19T19:41:16.929Z,20.20
2019-05-19T19:43:45.386Z,20.20
2019-05-19T19:46:13.765Z,20.20
2019-05-19T19:48:42.206Z,20.10
2019-05-19T19:51:10.574Z,20.10
2019-05-19T19:53:38.947Z,20.10
2019-05-19T19:56:07.393Z,20.00
2019-05-19T19:58:35.822Z,20.00
2019-05-19T20:01:04.224Z,20.00
2019-05-19T20:03:32.760Z,20.00
2019-05-19T20:06:01.133Z,19.90
2019-05-19T20:08:29.527Z,19.90
2019-05-19T20:10:57.928Z,19.90
2019-05-19T20:13:26.325Z,19.90
2019-05-19T20:15:54.725Z,19.90
2019-05-19T20:18:23.169Z,19.90
2019-05-19T20:20:51.558Z,19.90
2019-05-19T20:23:20.036Z,19.80
2019-05-19T20:25:48.449Z,19.70
2019-05-19T20:28:16.838Z,19.70
2019-05-19T20:30:45.222Z,19.70
2019-05-19T20:33:13.663Z,19.70
2019-05-19T20:35:42.036Z,19.70
2019-05-19T20:38:10.486Z,19.70
2019-05-19T20:40:38.864Z,19.60
2019-05-19T20:43:07.276Z,19.60
2019-05-19T20:45:35.754Z,19.50
2019-05-19T20:48:04.126Z,19.50
2019-05-19T20:50:32.545Z,19.50
2019-05-19T20:53:00.990Z,19.50
2019-05-19T20:55:29.387Z,19.50
2019-05-19T20:57:57.873Z,19.40
2019-05-19T21:00:26.543Z,19.40
2019-05-19T21:02:54.956Z,19.40
2019-05-19T21:05:23.436Z,19.40
2019-05-19T21:07:51.907Z,19.40
2019-05-19T21:10:20.324Z,19.40
2019-05-19T21:12:48.781Z,19.30
2019-05-19T21:15:17.230Z,19.30
2019-05-19T21:17:45.634Z,19.30
2019-05-19T21:20:14.176Z,19.30
2019-05-19T21:22:42.716Z,19.20
2019-05-19T21:25:11.093Z,19.20
2019-05-19T21:27:39.638Z,19.10
2019-05-19T21:30:08.051Z,19.10
2019-05-19T21:32:36.433Z,19.00
2019-05-19T21:35:06.136Z,19.00
2019-05-19T21:37:34.529Z,18.90
2019-05-19T21:40:02.995Z,18.90
2019-05-19T21:42:31.412Z,18.90
2019-05-19T21:44:59.796Z,18.90
2019-05-19T21:47:28.175Z,18.80
2019-05-19T21:49:56.696Z,18.80
2019-05-19T21:52:25.087Z,18.80
2019-05-19T21:54:53.468Z,18.80
2019-05-19T21:57:21.850Z,18.70
2019-05-19T21:59:50.520Z,18.70
2019-05-19T22:02:18.908Z,18.70
2019-05-19T22:04:47.371Z,18.70
2019-05-19T22:07:17.416Z,18.60
2019-05-19T22:09:45.867Z,18.60
2019-05-19T22:12:14.271Z,18.60
2019-05-19T22:14:42.685Z,18.60
2019-05-19T22:17:11.127Z,18.60
2019-05-19T22:19:39.636Z,18.60
2019-05-19T22:22:08.040Z,18.60
2019-05-19T22:24:36.489Z,18.60
2019-05-19T22:27:04.866Z,18.60
2019-05-19T22:29:33.460Z,18.60
2019-05-19T22:32:02.083Z,18.50
2019-05-19T22:34:30.436Z,18.50
2019-05-19T22:36:58.853Z,18.50
2019-05-19T22:39:27.367Z,18.50
2019-05-19T22:41:55.745Z,18.50
2019-05-19T22:44:24.166Z,18.40
2019-05-19T22:46:52.543Z,18.40
2019-05-19T22:49:20.926Z,18.50
2019-05-19T22:51:49.312Z,18.40
2019-05-19T22:54:17.668Z,18.40
2019-05-19T22:56:46.078Z,18.40
2019-05-19T22:59:19.826Z,18.40
2019-05-19T23:01:51.721Z,18.40
2019-05-19T23:04:14.621Z,18.40
2019-05-19T23:06:43.040Z,18.40
2019-05-19T23:09:11.424Z,18.40
2019-05-19T23:11:39.788Z,18.40
2019-05-19T23:14:08.271Z,18.30
2019-05-19T23:16:36.650Z,18.40
2019-05-19T23:19:05.027Z,18.30
2019-05-19T23:21:34.523Z,18.40
2019-05-19T23:24:03.356Z,18.40
2019-05-19T23:26:31.840Z,18.40
2019-05-19T23:29:00.262Z,18.40
2019-05-19T23:31:28.712Z,18.40
2019-05-19T23:34:00.536Z,18.40
2019-05-19T23:36:28.846Z,18.30
2019-05-19T23:38:57.234Z,18.30
2019-05-19T23:41:25.662Z,18.30
2019-05-19T23:43:54.040Z,18.30
2019-05-19T23:46:22.417Z,18.30
2019-05-19T23:48:50.832Z,18.30
2019-05-19T23:51:19.211Z,18.30
2019-05-19T23:53:47.623Z,18.30
2019-05-19T23:56:15.930Z,18.30
2019-05-19T23:58:44.291Z,18.30
